createdAt,value
2023-02-08T00:01:10.709Z,14.30
2023-02-08T00:03:39.263Z,14.93
2023-02-08T00:06:07.939Z,15.00
2023-02-08T00:08:36.146Z,13.90
2023-02-08T00:11:04.225Z,14.73
2023-02-08T00:13:32.109Z,15.43
2023-02-08T00:16:00.059Z,14.70
2023-02-08T00:18:29.366Z,15.70
2023-02-08T00:20:57.406Z,13.77
2023-02-08T00:23:27.782Z,13.07
2023-02-08T00:25:55.656Z,13.40
2023-02-08T00:28:23.536Z,14.20
2023-02-08T00:30:51.482Z,14.07
2023-02-08T00:33:19.356Z,13.60
2023-02-08T00:35:48.622Z,14.20
2023-02-08T00:38:16.566Z,15.00
2023-02-08T00:40:44.435Z,14.30
2023-02-08T00:43:12.567Z,12.87
2023-02-08T00:45:41.240Z,14.07
2023-02-08T00:48:09.133Z,14.03
2023-02-08T00:50:37.123Z,14.87
2023-02-08T00:53:06.399Z,14.13
2023-02-08T00:55:34.310Z,14.00
2023-02-08T00:58:02.204Z,13.80
2023-02-08T01:00:30.124Z,14.37
2023-02-08T01:02:58.119Z,13.93
2023-02-08T01:05:26.021Z,13.87
2023-02-08T01:07:53.932Z,14.20
2023-02-08T01:10:23.232Z,13.13
2023-02-08T01:12:51.102Z,14.03
2023-02-08T01:15:19.208Z,14.73
2023-02-08T01:17:47.036Z,13.77
2023-02-08T01:20:14.897Z,14.97
2023-02-08T01:22:42.788Z,14.77
2023-02-08T01:25:11.361Z,13.87
2023-02-08T01:27:40.611Z,15.50
2023-02-08T01:30:09.872Z,13.97
2023-02-08T01:32:37.842Z,14.60
2023-02-08T01:35:06.409Z,14.17
2023-02-08T01:37:34.272Z,13.27
2023-02-08T01:40:02.170Z,14.50
2023-02-08T01:42:30.064Z,14.60
2023-02-08T01:45:30.882Z,13.90
2023-02-08T01:48:04.960Z,13.83
2023-02-08T01:50:35.706Z,13.63
2023-02-08T01:53:03.958Z,13.60
2023-02-08T01:55:34.278Z,15.03
2023-02-08T01:58:04.748Z,14.90
2023-02-08T02:00:34.224Z,15.00
2023-02-08T02:03:02.480Z,13.77
2023-02-08T02:05:34.833Z,13.87
2023-02-08T02:08:02.767Z,14.10
2023-02-08T02:10:32.996Z,13.13
2023-02-08T02:13:05.578Z,14.23
2023-02-08T02:15:34.996Z,14.63
2023-02-08T02:18:03.166Z,14.43
2023-02-08T02:20:40.011Z,13.00
2023-02-08T02:23:37.558Z,15.10
2023-02-08T02:26:25.593Z,14.20
2023-02-08T02:29:10.470Z,14.33
2023-02-08T02:31:56.475Z,14.30
2023-02-08T02:34:27.753Z,13.37
2023-02-08T02:37:03.168Z,13.77
2023-02-08T02:39:36.673Z,13.70
2023-02-08T02:42:29.794Z,13.23
2023-02-08T02:45:06.557Z,14.43
2023-02-08T02:47:40.325Z,14.00
2023-02-08T02:50:13.358Z,14.37
2023-02-08T02:52:44.027Z,13.93
2023-02-08T02:55:16.009Z,14.63
2023-02-08T02:57:46.117Z,14.27
2023-02-08T03:00:21.342Z,13.60
2023-02-08T03:02:50.754Z,14.10
2023-02-08T03:05:19.012Z,13.57
2023-02-08T03:08:11.841Z,14.97
2023-02-08T03:10:54.766Z,15.30
2023-02-08T03:13:29.234Z,14.03
2023-02-08T03:16:03.520Z,14.70
2023-02-08T03:18:41.208Z,14.20
2023-02-08T03:21:11.692Z,14.13
2023-02-08T03:23:42.850Z,14.27
2023-02-08T03:26:17.484Z,14.20
2023-02-08T03:28:50.096Z,14.20
2023-02-08T03:31:20.705Z,13.30
2023-02-08T03:33:53.823Z,13.60
2023-02-08T03:36:24.158Z,14.13
2023-02-08T03:38:52.710Z,13.20
2023-02-08T03:41:23.487Z,14.07
2023-02-08T03:43:55.588Z,13.27
2023-02-08T03:46:25.940Z,14.03
2023-02-08T03:48:57.348Z,13.57
2023-02-08T03:51:25.564Z,14.00
2023-02-08T03:53:55.169Z,14.50
2023-02-08T03:56:30.238Z,14.17
2023-02-08T03:59:01.386Z,14.30
2023-02-08T04:01:33.008Z,13.33
2023-02-08T04:04:02.453Z,13.50
2023-02-08T04:06:30.595Z,14.17
2023-02-08T04:08:58.490Z,14.07
2023-02-08T04:11:26.358Z,14.27
2023-02-08T04:13:54.269Z,14.23
2023-02-08T04:16:22.183Z,14.07
2023-02-08T04:18:50.093Z,15.13
2023-02-08T04:21:19.356Z,16.57
2023-02-08T04:23:47.287Z,15.70
2023-02-08T04:26:15.172Z,15.67
2023-02-08T04:28:43.166Z,15.37
2023-02-08T04:31:11.213Z,14.70
2023-02-08T04:33:39.144Z,14.60
2023-02-08T04:36:07.400Z,15.40
2023-02-08T04:38:36.729Z,15.40
2023-02-08T04:41:04.738Z,14.90
2023-02-08T04:43:32.950Z,15.60
2023-02-08T04:46:00.916Z,14.47
2023-02-08T04:48:28.862Z,15.63
2023-02-08T04:50:57.631Z,14.70
2023-02-08T04:53:25.773Z,15.30
2023-02-08T04:55:55.061Z,14.87
2023-02-08T04:58:23.771Z,14.63
2023-02-08T05:00:51.625Z,14.97
2023-02-08T05:03:19.704Z,14.83
2023-02-08T05:05:47.616Z,15.53
2023-02-08T05:08:15.501Z,14.80
2023-02-08T05:10:46.064Z,15.40
2023-02-08T05:13:15.357Z,14.90
2023-02-08T05:15:43.254Z,14.93
2023-02-08T05:18:11.147Z,15.20
2023-02-08T05:20:39.461Z,15.57
2023-02-08T05:23:07.669Z,14.67
2023-02-08T05:25:35.534Z,15.57
2023-02-08T05:28:03.438Z,14.47
2023-02-08T05:30:32.644Z,15.57
2023-02-08T05:33:00.516Z,14.27
2023-02-08T05:35:28.399Z,15.63
2023-02-08T05:37:56.310Z,16.10
2023-02-08T05:40:24.197Z,14.50
2023-02-08T05:42:52.109Z,14.37
2023-02-08T05:45:19.995Z,14.10
2023-02-08T05:47:49.254Z,15.47
2023-02-08T05:50:18.474Z,15.27
2023-02-08T05:52:46.409Z,16.03
2023-02-08T05:55:14.325Z,15.57
2023-02-08T05:57:42.186Z,16.93
2023-02-08T06:00:11.512Z,15.17
2023-02-08T06:02:39.431Z,15.57
2023-02-08T06:05:09.565Z,15.10
2023-02-08T06:07:37.493Z,14.70
2023-02-08T06:10:05.954Z,15.77
2023-02-08T06:12:33.889Z,15.07
2023-02-08T06:15:01.751Z,15.27
2023-02-08T06:17:29.622Z,16.17
2023-02-08T06:19:57.563Z,15.30
2023-02-08T06:22:26.820Z,15.50
2023-02-08T06:24:54.690Z,15.67
2023-02-08T06:27:22.565Z,15.50
2023-02-08T06:29:50.447Z,15.90
2023-02-08T06:32:18.554Z,14.70
2023-02-08T06:34:48.220Z,14.57
2023-02-08T06:37:16.125Z,15.13
2023-02-08T06:39:48.563Z,14.80
2023-02-08T06:42:16.499Z,16.07
2023-02-08T06:44:54.453Z,39.13
2023-02-08T06:47:23.214Z,20.00
2023-02-08T06:49:51.210Z,20.00
2023-02-08T06:52:19.241Z,17.40
2023-02-08T06:54:48.514Z,16.37
2023-02-08T06:57:16.442Z,15.27
2023-02-08T06:59:44.297Z,15.87
2023-02-08T07:02:14.061Z,15.07
2023-02-08T07:04:42.143Z,15.43
2023-02-08T07:07:10.232Z,15.83
2023-02-08T07:09:38.136Z,16.30
2023-02-08T07:12:07.901Z,16.47
2023-02-08T07:14:37.568Z,15.67
2023-02-08T07:17:05.831Z,14.77
2023-02-08T07:19:33.774Z,16.37
2023-02-08T07:22:07.230Z,15.13
2023-02-08T07:24:36.166Z,15.30
2023-02-08T07:27:05.177Z,14.77
2023-02-08T07:29:35.594Z,15.43
2023-02-08T07:32:05.148Z,14.13
2023-02-08T07:34:35.158Z,15.10
2023-02-08T07:37:03.245Z,14.93
2023-02-08T07:39:31.453Z,17.57
2023-02-08T07:41:59.644Z,16.60
2023-02-08T07:44:27.541Z,17.40
2023-02-08T07:46:56.861Z,17.30
2023-02-08T07:49:24.941Z,17.50
2023-02-08T07:51:52.870Z,17.60
2023-02-08T07:54:20.708Z,17.03
2023-02-08T07:56:48.626Z,16.00
2023-02-08T07:59:16.509Z,16.27
2023-02-08T08:01:44.494Z,14.13
2023-02-08T08:04:13.756Z,16.73
2023-02-08T08:06:41.673Z,16.30
2023-02-08T08:09:09.539Z,16.37
2023-02-08T08:11:37.437Z,16.23
2023-02-08T08:14:05.357Z,15.33
2023-02-08T08:16:33.282Z,15.97
2023-02-08T08:19:01.315Z,15.67
2023-02-08T08:21:30.638Z,15.17
2023-02-08T08:23:58.544Z,15.40
2023-02-08T08:26:26.483Z,15.20
2023-02-08T08:28:54.429Z,14.73
2023-02-08T08:31:22.922Z,14.77
2023-02-08T08:33:50.991Z,15.23
2023-02-08T08:36:18.994Z,14.73
2023-02-08T08:38:48.271Z,14.67
2023-02-08T08:41:18.711Z,13.80
2023-02-08T08:43:46.893Z,13.63
2023-02-08T08:46:16.511Z,13.27
2023-02-08T08:48:44.503Z,13.33
2023-02-08T08:51:13.004Z,12.43
2023-02-08T08:53:41.000Z,11.00
2023-02-08T08:56:10.478Z,11.40
2023-02-08T08:58:40.495Z,10.33
2023-02-08T09:01:08.404Z,9.57
2023-02-08T09:03:36.311Z,10.20
2023-02-08T09:06:04.306Z,9.40
2023-02-08T09:08:32.216Z,8.80
2023-02-08T09:11:05.659Z,9.73
2023-02-08T09:13:34.968Z,9.10
2023-02-08T09:16:06.373Z,8.57
2023-02-08T09:18:34.397Z,8.73
2023-02-08T09:21:06.974Z,8.10
2023-02-08T09:23:34.898Z,8.67
2023-02-08T09:26:03.675Z,7.73
2023-02-08T09:28:31.673Z,7.00
2023-02-08T09:31:01.745Z,7.67
2023-02-08T09:33:29.685Z,8.20
2023-02-08T09:35:57.600Z,7.80
2023-02-08T09:38:25.494Z,8.17
2023-02-08T09:41:00.274Z,7.37
2023-02-08T09:43:32.964Z,7.50
2023-02-08T09:46:06.981Z,6.80
2023-02-08T09:48:36.474Z,7.57
2023-02-08T09:51:07.781Z,7.67
2023-02-08T09:53:40.317Z,6.70
2023-02-08T09:56:11.174Z,7.33
2023-02-08T09:58:40.995Z,6.43
2023-02-08T10:01:15.787Z,6.67
2023-02-08T10:03:45.304Z,7.07
2023-02-08T10:06:15.407Z,6.97
2023-02-08T10:08:43.925Z,6.77
2023-02-08T10:11:26.391Z,6.40
2023-02-08T10:14:09.412Z,5.97
2023-02-08T10:16:57.239Z,6.57
2023-02-08T10:19:37.739Z,6.60
2023-02-08T10:22:15.338Z,6.00
2023-02-08T10:24:57.722Z,6.53
2023-02-08T10:27:33.628Z,6.23
2023-02-08T10:30:20.762Z,6.73
2023-02-08T10:32:58.718Z,5.93
2023-02-08T10:35:32.145Z,5.90
2023-02-08T10:38:00.245Z,6.45
2023-02-08T10:40:33.566Z,6.07
2023-02-08T10:43:10.791Z,5.27
2023-02-08T10:45:43.394Z,4.68
2023-02-08T10:48:16.426Z,4.82
2023-02-08T10:50:47.488Z,5.43
2023-02-08T10:53:16.895Z,5.20
2023-02-08T10:55:46.754Z,5.25
2023-02-08T10:58:18.810Z,4.82
2023-02-08T11:00:47.213Z,4.63
2023-02-08T11:03:19.978Z,4.03
2023-02-08T11:05:47.900Z,3.67
2023-02-08T11:08:19.640Z,3.35
2023-02-08T11:10:57.788Z,2.75
2023-02-08T11:13:27.711Z,3.00
2023-02-08T11:15:57.783Z,2.88
2023-02-08T11:18:30.502Z,2.65
2023-02-08T11:21:00.824Z,2.70
2023-02-08T11:23:30.753Z,2.40
2023-02-08T11:26:18.532Z,2.90
2023-02-08T11:29:02.714Z,2.55
2023-02-08T11:31:32.214Z,2.38
2023-02-08T11:34:05.617Z,2.30
2023-02-08T11:36:35.341Z,2.30
2023-02-08T11:39:04.825Z,2.20
2023-02-08T11:41:32.832Z,2.40
2023-02-08T11:44:03.279Z,2.30
2023-02-08T11:46:34.700Z,2.08
2023-02-08T11:49:04.670Z,2.20
2023-02-08T11:51:34.524Z,1.90
2023-02-08T11:54:03.102Z,2.13
2023-02-08T11:56:32.825Z,1.88
2023-02-08T11:59:06.822Z,2.08
2023-02-08T12:01:36.675Z,1.83
2023-02-08T12:04:08.276Z,1.73
2023-02-08T12:07:04.131Z,1.73
2023-02-08T12:09:44.793Z,1.50
2023-02-08T12:12:18.992Z,1.70
2023-02-08T12:14:57.157Z,1.60
2023-02-08T12:17:39.771Z,1.80
2023-02-08T12:20:27.897Z,1.88
2023-02-08T12:23:02.290Z,1.88
2023-02-08T12:25:35.573Z,1.70
2023-02-08T12:28:10.620Z,1.77
2023-02-08T12:30:40.981Z,1.80
2023-02-08T12:33:29.272Z,1.88
2023-02-08T12:36:28.144Z,2.15
2023-02-08T12:39:37.370Z,1.95
2023-02-08T12:42:24.537Z,1.83
2023-02-08T12:45:10.073Z,2.03
2023-02-08T12:48:02.938Z,1.80
2023-02-08T12:50:37.975Z,1.90
2023-02-08T12:53:19.155Z,2.00
2023-02-08T12:55:47.319Z,2.53
2023-02-08T12:58:25.679Z,2.13
2023-02-08T13:00:54.777Z,2.20
2023-02-08T13:03:32.110Z,2.40
2023-02-08T13:06:02.569Z,2.30
2023-02-08T13:08:35.333Z,2.10
2023-02-08T13:11:19.061Z,2.22
2023-02-08T13:13:54.962Z,2.75
2023-02-08T13:16:25.432Z,3.08
2023-02-08T13:18:55.994Z,2.95
2023-02-08T13:21:26.018Z,2.83
2023-02-08T13:23:55.576Z,3.28
2023-02-08T13:26:26.709Z,2.78
2023-02-08T13:28:56.266Z,2.45
2023-02-08T13:31:26.353Z,2.60
2023-02-08T13:34:01.774Z,2.90
2023-02-08T13:36:31.845Z,2.60
2023-02-08T13:39:02.911Z,2.85
2023-02-08T13:41:31.821Z,3.00
2023-02-08T13:44:02.555Z,2.58
2023-02-08T13:46:36.999Z,3.10
2023-02-08T13:49:04.916Z,2.90
2023-02-08T13:51:56.564Z,2.80
2023-02-08T13:54:26.036Z,3.00
2023-02-08T13:56:54.777Z,2.80
2023-02-08T13:59:35.421Z,2.90
2023-02-08T14:02:26.950Z,3.10
2023-02-08T14:05:00.208Z,2.70
2023-02-08T14:07:40.704Z,2.90
2023-02-08T14:10:31.985Z,2.95
2023-02-08T14:13:02.946Z,2.92
2023-02-08T14:15:37.484Z,2.90
2023-02-08T14:18:06.080Z,2.78
2023-02-08T14:20:38.774Z,2.50
2023-02-08T14:23:09.068Z,2.78
2023-02-08T14:25:43.695Z,3.72
2023-02-08T14:28:25.964Z,2.78
2023-02-08T14:30:55.361Z,3.00
2023-02-08T14:33:26.781Z,2.78
2023-02-08T14:35:57.240Z,2.90
2023-02-08T14:39:06.459Z,2.50
2023-02-08T14:41:50.158Z,2.90
2023-02-08T14:44:48.906Z,3.20
2023-02-08T14:48:00.697Z,3.00
2023-02-08T14:50:34.406Z,3.15
2023-02-08T14:53:08.828Z,3.00
2023-02-08T14:55:42.468Z,2.90
2023-02-08T14:58:14.105Z,3.28
2023-02-08T15:00:42.809Z,3.47
2023-02-08T15:03:16.146Z,3.42
2023-02-08T15:05:49.828Z,3.97
2023-02-08T15:08:21.576Z,4.82
2023-02-08T15:10:49.582Z,4.57
2023-02-08T15:13:21.886Z,4.38
2023-02-08T15:15:54.547Z,4.15
2023-02-08T15:18:25.047Z,4.15
2023-02-08T15:21:02.734Z,3.90
2023-02-08T15:23:31.649Z,3.67
2023-02-08T15:26:02.078Z,4.47
2023-02-08T15:28:33.175Z,4.75
2023-02-08T15:31:03.117Z,4.25
2023-02-08T15:33:31.090Z,4.55
2023-02-08T15:36:01.134Z,5.53
2023-02-08T15:38:29.822Z,5.30
2023-02-08T15:41:02.644Z,5.45
2023-02-08T15:43:32.867Z,4.03
2023-02-08T15:46:02.614Z,3.90
2023-02-08T15:48:31.262Z,3.88
2023-02-08T15:50:59.485Z,3.80
2023-02-08T15:53:28.035Z,4.22
2023-02-08T15:55:59.898Z,3.70
2023-02-08T15:58:31.843Z,3.90
2023-02-08T16:01:01.072Z,3.83
2023-02-08T16:03:30.106Z,4.32
2023-02-08T16:05:59.324Z,4.45
2023-02-08T16:08:28.956Z,4.03
2023-02-08T16:10:58.850Z,5.80
2023-02-08T16:13:29.032Z,5.40
2023-02-08T16:16:08.571Z,4.93
2023-02-08T16:18:41.149Z,4.78
2023-02-08T16:21:28.474Z,5.72
2023-02-08T16:23:58.483Z,8.63
2023-02-08T16:26:28.724Z,10.05
2023-02-08T16:28:59.114Z,8.15
2023-02-08T16:31:30.907Z,7.50
2023-02-08T16:34:01.147Z,7.20
2023-02-08T16:36:40.382Z,6.25
2023-02-08T16:39:46.903Z,6.97
2023-02-08T16:42:23.942Z,6.75
2023-02-08T16:45:01.441Z,6.70
2023-02-08T16:47:37.039Z,6.63
2023-02-08T16:50:05.379Z,6.05
2023-02-08T16:52:33.698Z,6.20
2023-02-08T16:55:01.874Z,8.57
2023-02-08T16:57:40.665Z,6.88
2023-02-08T17:00:16.164Z,5.93
2023-02-08T17:02:45.605Z,4.82
2023-02-08T17:05:14.056Z,4.88
2023-02-08T17:07:41.958Z,4.85
2023-02-08T17:10:17.805Z,5.53
2023-02-08T17:12:45.759Z,5.57
2023-02-08T17:15:13.725Z,7.85
2023-02-08T17:17:41.623Z,9.10
2023-02-08T17:20:19.231Z,9.00
2023-02-08T17:22:48.585Z,9.80
2023-02-08T17:25:19.165Z,8.95
2023-02-08T17:27:53.576Z,8.10
2023-02-08T17:30:26.454Z,8.07
2023-02-08T17:32:56.181Z,8.90
2023-02-08T17:35:26.280Z,7.57
2023-02-08T17:37:54.205Z,8.23
2023-02-08T17:40:23.222Z,7.27
2023-02-08T17:42:53.042Z,7.83
2023-02-08T17:45:21.451Z,8.53
2023-02-08T17:47:49.522Z,7.90
2023-02-08T17:50:19.345Z,8.60
2023-02-08T17:52:49.359Z,11.47
2023-02-08T17:55:18.268Z,13.60
2023-02-08T17:57:47.046Z,11.23
2023-02-08T18:00:17.362Z,9.63
2023-02-08T18:02:46.876Z,9.90
2023-02-08T18:05:15.630Z,8.73
2023-02-08T18:07:43.540Z,8.47
2023-02-08T18:10:13.583Z,7.57
2023-02-08T18:12:41.935Z,7.30
2023-02-08T18:15:12.322Z,7.17
2023-02-08T18:17:40.321Z,7.40
2023-02-08T18:20:09.524Z,6.80
2023-02-08T18:22:38.090Z,7.80
2023-02-08T18:25:07.024Z,8.30
2023-02-08T18:27:36.392Z,11.53
2023-02-08T18:30:04.669Z,10.33
2023-02-08T18:32:32.543Z,10.57
2023-02-08T18:35:03.411Z,10.30
2023-02-08T18:37:31.961Z,10.87
2023-02-08T18:40:00.282Z,10.37
2023-02-08T18:42:28.428Z,10.43
2023-02-08T18:44:57.948Z,9.80
2023-02-08T18:47:25.823Z,10.80
2023-02-08T18:49:54.877Z,9.23
2023-02-08T18:52:24.215Z,9.77
2023-02-08T18:54:52.345Z,9.43
2023-02-08T18:57:20.417Z,8.57
2023-02-08T18:59:48.336Z,8.73
2023-02-08T19:02:20.919Z,8.53
2023-02-08T19:04:49.482Z,9.13
2023-02-08T19:07:17.458Z,8.47
2023-02-08T19:09:45.348Z,8.53
2023-02-08T19:12:15.546Z,8.10
2023-02-08T19:14:44.113Z,7.77
2023-02-08T19:17:15.006Z,6.70
2023-02-08T19:19:44.315Z,7.17
2023-02-08T19:22:12.302Z,7.10
2023-02-08T19:24:40.221Z,7.07
2023-02-08T19:27:08.151Z,7.33
2023-02-08T19:29:36.615Z,7.00
2023-02-08T19:32:05.006Z,7.33
2023-02-08T19:34:32.958Z,7.37
2023-02-08T19:37:02.347Z,8.10
2023-02-08T19:39:30.282Z,7.00
2023-02-08T19:41:59.185Z,7.77
2023-02-08T19:44:30.125Z,7.17
2023-02-08T19:46:58.440Z,6.80
2023-02-08T19:49:27.312Z,6.77
2023-02-08T19:51:55.534Z,7.63
2023-02-08T19:54:25.093Z,6.83
2023-02-08T19:56:54.735Z,6.70
2023-02-08T19:59:24.995Z,6.50
2023-02-08T20:01:53.200Z,6.53
2023-02-08T20:04:21.544Z,7.30
2023-02-08T20:06:51.542Z,6.87
2023-02-08T20:09:19.494Z,7.57
2023-02-08T20:11:57.902Z,7.50
2023-02-08T20:14:26.747Z,7.03
2023-02-08T20:16:54.729Z,7.23
2023-02-08T20:19:23.277Z,7.47
2023-02-08T20:21:51.134Z,6.83
2023-02-08T20:24:19.173Z,6.63
2023-02-08T20:26:49.280Z,7.07
2023-02-08T20:29:17.994Z,6.97
2023-02-08T20:31:47.922Z,7.43
2023-02-08T20:34:17.198Z,7.53
2023-02-08T20:36:49.837Z,7.77
2023-02-08T20:39:23.308Z,7.93
2023-02-08T20:41:52.525Z,8.30
2023-02-08T20:44:20.431Z,8.17
2023-02-08T20:46:48.394Z,8.23
2023-02-08T20:49:21.972Z,8.53
2023-02-08T20:51:52.478Z,8.17
2023-02-08T20:54:23.369Z,8.20
2023-02-08T20:56:53.460Z,8.57
2023-02-08T20:59:21.387Z,7.83
2023-02-08T21:01:50.012Z,7.83
2023-02-08T21:04:20.291Z,7.40
2023-02-08T21:06:48.495Z,7.93
2023-02-08T21:09:18.618Z,7.43
2023-02-08T21:11:47.178Z,8.50
2023-02-08T21:14:19.103Z,8.40
2023-02-08T21:16:48.323Z,9.13
2023-02-08T21:19:17.296Z,8.33
2023-02-08T21:21:45.372Z,8.73
2023-02-08T21:24:13.235Z,8.37
2023-02-08T21:26:41.127Z,9.23
2023-02-08T21:29:09.077Z,7.93
2023-02-08T21:31:38.579Z,8.40
2023-02-08T21:34:07.480Z,7.70
2023-02-08T21:36:35.815Z,7.83
2023-02-08T21:39:03.760Z,7.90
2023-02-08T21:41:32.910Z,8.20
2023-02-08T21:44:03.270Z,8.37
2023-02-08T21:46:31.866Z,7.63
2023-02-08T21:49:18.806Z,7.60
2023-02-08T21:52:04.501Z,8.00
2023-02-08T21:54:44.389Z,7.10
2023-02-08T21:57:18.684Z,7.30
2023-02-08T21:59:47.375Z,7.10
2023-02-08T22:02:21.710Z,6.50
2023-02-08T22:05:08.629Z,6.83
2023-02-08T22:07:44.718Z,6.30
2023-02-08T22:10:14.460Z,6.77
2023-02-08T22:12:42.704Z,7.60
2023-02-08T22:15:14.804Z,7.30
2023-02-08T22:17:42.752Z,7.37
2023-02-08T22:20:14.100Z,7.20
2023-02-08T22:22:42.027Z,7.50
2023-02-08T22:25:09.967Z,7.63
2023-02-08T22:27:39.042Z,7.47
2023-02-08T22:30:07.770Z,8.57
2023-02-08T22:32:35.723Z,7.50
2023-02-08T22:35:03.628Z,8.03
2023-02-08T22:37:33.618Z,7.27
2023-02-08T22:40:01.539Z,7.27
2023-02-08T22:42:29.506Z,7.87
2023-02-08T22:44:57.614Z,7.40
2023-02-08T22:47:25.593Z,8.13
2023-02-08T22:49:53.462Z,7.20
2023-02-08T22:52:21.409Z,7.60
2023-02-08T22:54:51.962Z,7.60
2023-02-08T22:57:19.865Z,7.43
2023-02-08T22:59:48.216Z,7.43
2023-02-08T23:02:17.959Z,7.13
2023-02-08T23:04:45.847Z,6.73
2023-02-08T23:07:13.785Z,6.83
2023-02-08T23:09:43.753Z,7.27
2023-02-08T23:12:12.999Z,6.73
2023-02-08T23:14:40.886Z,6.70
2023-02-08T23:17:09.078Z,7.70
2023-02-08T23:19:36.928Z,7.83
2023-02-08T23:22:04.811Z,7.43
2023-02-08T23:24:32.723Z,7.90
2023-02-08T23:27:00.620Z,7.10
2023-02-08T23:29:29.866Z,7.53
2023-02-08T23:31:57.750Z,7.27
2023-02-08T23:34:25.687Z,7.50
2023-02-08T23:36:53.632Z,7.13
2023-02-08T23:39:21.578Z,7.27
2023-02-08T23:41:49.429Z,7.27
2023-02-08T23:44:17.316Z,7.23
2023-02-08T23:46:46.634Z,7.13
2023-02-08T23:49:14.513Z,7.47
2023-02-08T23:51:42.417Z,7.10
2023-02-08T23:54:10.319Z,7.93
2023-02-08T23:56:38.209Z,7.50
2023-02-08T23:59:08.223Z,7.17
